Redwood City, CA (94061)

8:23 PM PDT on August 30, 2015 (GMT -0700)
Central Portola Valley | | Change Station
CLOSE
Current Station
Personal Weather Station
Location: Portola Valley, CA
Elevation: 660 ft
Nearby Weather Stations

Elev 660 ft 37.39 °N, 122.21 °W | Updated 10 minutes ago

Clear
Clear
65.8 °F
Feels Like 65.8 °F
N
0.0
Wind Variable Wind from South
Gusts 2.0 mph

Today
High -- | Low -- °F
--% Chance of Precip.
Yesterday
High -- | Low -- °F
Precip. -- in
6:37 AM 7:40 PM
Full, 97% visible
Pressure 29.96 in
Visibility 10.0 miles
Clouds Few 1300 ft
Scattered Clouds 20000 ft
Dew Point 55 °F
Humidity 69%
Rainfall 0.00 in
Snow Depth Not available.
UV 0 out of 12
Pollen 6.40 out of 12
Air Quality Not available.
Flu Activity Not available.
METAR KSQL 310250Z 28012G17KT 10SM FEW013 SCT200 21/13 A2996
Pressure 29.96 in
Visibility 10.0 miles
Clouds Few 1300 ft
Scattered Clouds 20000 ft
Dew Point 55 °F
Humidity 69%
Rainfall 0.00 in
Snow Depth Not available.
UV 0 out of 12
Pollen 6.40 out of 12
Air Quality Not available.
Flu Activity Not available.
METAR KSQL 310250Z 28012G17KT 10SM FEW013 SCT200 21/13 A2996

10-Day Weather Forecast

×

Almanac

Astronomy

Aug. 30, 2015 Rise Set
Actual Time
Civil Twilight
Nautical Twilight
Astronomical Twilight
Moon
Length of Visible Light
Length of Day
Tomorrow will be .
, % of the Moon is Illuminated

Today's Extremes

State Highs State Lows

Community

WunderPhotos

Upload Photos

1,851,167 photos uploaded!

WunderBlogs® & News

Nearby

Air Quality

  Air Quality AQ Index Pollutant
Not available.

Snow Depth

Station Depth Elevation

Earthquake Activity

City Distance Mag. Time & Date
Minimum magnitude displayed is 2.5.

Coastal Water Temperatures

Place Temperature

Stations

Nearby Weather Stations

Station Location Temp. Windchill Dew Point Humidity Wind Precip. Elev Updated Type